General Aviation Weather

Text Reports

Enter one or more of the following location identifiers separated by a space:

Zip Code, Four-Character ICAO or Three-Character IATA airport codes.

METAR - Aviation Routine Weather Report
KEVM - Eveleth, Minnesota
Updated at 3:51 AM GMT on December 20, 2014 (9:51 PM CST):
METAR KEVM 200351Z AUTO 16008KT 4SM -SN OVC005 M03/M04 A3012 RMK AO2
TAF - Terminal Area Forecast
KEVM - Eveleth, Minnesota
Updated at 3:51 AM GMT on December 20, 2014 (9:51 PM CST):
No TAF is currently available for this location.
Decoded:
No decoded TAF is available.
PIREP - Pilot Weather Report
KEVM - Eveleth, Minnesota
Updated at 3:51 AM GMT on December 20, 2014 (9:51 PM CST):
No PIREP is currently available for this location.
AIRMET - Airmens Meteorological Information
KEVM - Eveleth, Minnesota
Updated at 3:51 AM GMT on December 20, 2014 (9:51 PM CST):
No AIRMET is currently available for this location.
SIGMET - Significant Meteorological Information
KEVM - Eveleth, Minnesota
Updated at 3:51 AM GMT on December 20, 2014 (9:51 PM CST):
No SIGMET is currently available for this location.
NOTAM - Notice to Airmen
KEVM - Eveleth, Minnesota
Updated at 3:51 AM GMT on December 20, 2014 (9:51 PM CST):
No NOTAM is currently available for this location.
Forecast Area
KEVM - Eveleth, Minnesota
Updated at 3:51 AM GMT on December 20, 2014 (9:51 PM CST):
No NOTAM is currently available for this location.
Aviation Weather Maps